Time;durP1;ratioP1;P1;durP2;ratioP2;P2;SDS_P1;SDS_P2;PMS_P1;PMS_P2;Temp;Humidity;BMP_temperature;BMP_pressure;BME280_temperature;BME280_humidity;BME280_pressure;Samples;Min_cycle;Max_cycle;Signal;HPM_P1;HPM_P2
2022/11/21 00:00:24;;;;;;;6.93;3.05;;;11.70;61.40;;;;;;6109573;29;20059;-65
2022/11/21 00:03:25;;;;;;;5.18;2.70;;;11.70;61.40;;;;;;6124480;29;20040;-65
2022/11/21 00:06:26;;;;;;;4.53;2.65;;;11.60;61.40;;;;;;6127881;29;20049;-65
2022/11/21 00:09:27;;;;;;;5.03;2.45;;;11.50;61.50;;;;;;6143731;28;20356;-64
2022/11/21 00:12:27;;;;;;;7.07;2.50;;;11.50;61.60;;;;;;6128091;29;20464;-64
2022/11/21 00:15:29;;;;;;;9.45;3.00;;;11.50;61.60;;;;;;6128396;29;20035;-64
2022/11/21 00:18:29;;;;;;;8.75;3.80;;;11.40;61.50;;;;;;6128734;29;20103;-64
2022/11/21 00:21:30;;;;;;;3.65;2.50;;;11.40;61.60;;;;;;6124806;29;20032;-64
2022/11/21 00:24:31;;;;;;;5.28;2.30;;;11.40;61.60;;;;;;6127734;29;20441;-64
2022/11/21 00:27:32;;;;;;;2.17;1.63;;;11.40;61.70;;;;;;6125678;29;20131;-64
2022/11/21 00:30:33;;;;;;;4.07;2.05;;;11.30;61.70;;;;;;6122967;29;20473;-65
2022/11/21 00:33:35;;;;;;;4.60;2.20;;;11.20;61.80;;;;;;6108383;29;20040;-64
2022/11/21 00:36:36;;;;;;;4.45;2.45;;;11.10;61.90;;;;;;6125513;29;20040;-64
2022/11/21 00:39:37;;;;;;;5.72;3.00;;;11.00;62.40;;;;;;6128869;29;20082;-67
2022/11/21 00:42:38;;;;;;;7.50;3.42;;;10.90;62.60;;;;;;6129994;29;20050;-64
2022/11/21 00:45:39;;;;;;;7.53;3.60;;;10.90;63.00;;;;;;6128852;29;20063;-64
2022/11/21 00:48:39;;;;;;;11.93;3.85;;;10.80;64.20;;;;;;6129050;29;20381;-64
2022/11/21 00:51:40;;;;;;;10.13;4.50;;;10.80;63.80;;;;;;6129077;29;20062;-65
2022/11/21 00:54:41;;;;;;;7.32;4.32;;;10.70;64.10;;;;;;6128775;29;20460;-64
2022/11/21 00:57:42;;;;;;;9.38;5.22;;;10.70;64.50;;;;;;6129010;29;20110;-65
2022/11/21 01:00:43;;;;;;;8.45;4.45;;;10.70;64.80;;;;;;6126342;29;20039;-64
2022/11/21 01:03:45;;;;;;;9.73;4.80;;;10.70;65.10;;;;;;6123077;29;20040;-64
2022/11/21 01:06:45;;;;;;;10.13;4.35;;;10.70;65.30;;;;;;6125596;29;20066;-65
2022/11/21 01:09:47;;;;;;;6.25;4.28;;;10.70;65.40;;;;;;6125778;29;20040;-65
2022/11/21 01:12:47;;;;;;;10.95;4.70;;;10.70;65.40;;;;;;6125340;29;20035;-65
2022/11/21 01:15:48;;;;;;;6.38;3.55;;;10.70;65.20;;;;;;6129364;29;20043;-65
2022/11/21 01:18:49;;;;;;;7.72;4.15;;;10.70;65.20;;;;;;6127410;29;20051;-65
2022/11/21 01:21:50;;;;;;;7.65;3.90;;;10.70;65.00;;;;;;6128123;29;20043;-65
2022/11/21 01:24:51;;;;;;;5.40;3.42;;;10.70;65.00;;;;;;6128177;29;20485;-65
2022/11/21 01:27:52;;;;;;;9.73;4.15;;;10.80;65.00;;;;;;6127268;29;20028;-65
2022/11/21 01:30:52;;;;;;;8.98;3.38;;;10.70;64.90;;;;;;6127700;29;20470;-64
2022/11/21 01:33:55;;;;;;;8.85;3.90;;;10.70;65.00;;;;;;6110808;29;20485;-64
2022/11/21 01:36:56;;;;;;;6.32;3.72;;;10.70;65.00;;;;;;6088114;29;20131;-64
2022/11/21 01:39:57;;;;;;;6.88;3.70;;;10.70;65.10;;;;;;6116041;29;20036;-66
2022/11/21 01:43:03;;;;;;;8.43;3.95;;;10.60;65.10;;;;;;6125640;28;20039;-66
2022/11/21 01:46:06;;;;;;;7.60;3.30;;;10.60;65.20;;;;;;6128431;28;20042;-65
2022/11/21 01:49:16;;;;;;;6.93;3.80;;;10.60;65.30;;;;;;6127353;29;20043;-64
2022/11/21 01:52:25;;;;;;;7.53;3.72;;;10.50;65.40;;;;;;6106801;29;20147;-64
2022/11/21 01:55:26;;;;;;;6.63;3.75;;;10.50;65.50;;;;;;6113020;29;20043;-64
2022/11/21 01:58:30;;;;;;;13.07;4.43;;;10.50;65.60;;;;;;6124680;29;20074;-65
2022/11/21 02:01:34;;;;;;;8.20;4.28;;;10.50;65.60;;;;;;6125410;29;20047;-65
2022/11/21 02:04:35;;;;;;;6.43;3.50;;;10.50;65.50;;;;;;6125701;29;20059;-65
2022/11/21 02:07:40;;;;;;;8.75;4.32;;;10.50;65.40;;;;;;6125633;29;20089;-65
2022/11/21 02:11:04;;;;;;;7.95;3.75;;;10.50;65.40;;;;;;6125816;29;20106;-64
2022/11/21 02:14:05;;;;;;;10.30;3.88;;;10.50;65.50;;;;;;6124171;28;20032;-64
2022/11/21 02:17:09;;;;;;;9.90;4.45;;;10.40;65.50;;;;;;6127675;29;20046;-64
2022/11/21 02:20:18;;;;;;;11.82;5.10;;;10.40;65.50;;;;;;6125646;29;20484;-64
2022/11/21 02:23:27;;;;;;;10.15;4.80;;;10.40;65.50;;;;;;6122459;29;20473;-66
2022/11/21 02:26:29;;;;;;;9.18;4.65;;;10.30;65.40;;;;;;6125431;29;20047;-64
2022/11/21 02:29:31;;;;;;;9.40;4.82;;;10.30;65.40;;;;;;6136835;28;20043;-64
2022/11/21 02:32:34;;;;;;;12.25;5.68;;;10.30;65.40;;;;;;6110834;29;20071;-64
2022/11/21 02:35:35;;;;;;;12.50;5.57;;;10.30;65.40;;;;;;6103048;29;20040;-64
2022/11/21 02:38:37;;;;;;;13.48;5.80;;;10.40;65.30;;;;;;6116532;29;20044;-64
2022/11/21 02:41:47;;;;;;;13.55;5.88;;;10.40;65.20;;;;;;6126280;29;20047;-64
2022/11/21 02:45:27;;;;;;;12.90;6.65;;;10.40;65.10;;;;;;6127291;29;20040;-65
2022/11/21 02:48:28;;;;;;;12.10;6.03;;;10.40;65.10;;;;;;6099980;29;20106;-65
2022/11/21 02:51:29;;;;;;;17.38;7.20;;;10.40;65.20;;;;;;6084265;29;20342;-65
2022/11/21 02:54:29;;;;;;;12.50;6.35;;;10.40;65.10;;;;;;6071573;29;20041;-64
2022/11/21 02:57:31;;;;;;;15.40;6.60;;;10.50;65.00;;;;;;6080992;29;20732;-64
2022/11/21 03:00:33;;;;;;;14.23;6.82;;;10.50;64.90;;;;;;6082440;29;20044;-64
2022/11/21 03:03:34;;;;;;;12.30;5.82;;;10.50;64.90;;;;;;6095117;29;20552;-65
2022/11/21 03:06:35;;;;;;;8.70;4.93;;;10.50;64.60;;;;;;6081896;29;20047;-64
2022/11/21 03:09:36;;;;;;;14.80;4.72;;;10.50;64.60;;;;;;6080899;29;20135;-64
2022/11/21 03:12:38;;;;;;;9.00;4.57;;;10.50;64.60;;;;;;6100966;29;20096;-65
2022/11/21 03:15:39;;;;;;;6.47;3.88;;;10.50;64.60;;;;;;6083422;29;20048;-64
2022/11/21 03:18:39;;;;;;;9.40;4.57;;;10.50;64.60;;;;;;6100671;29;20047;-64
2022/11/21 03:21:40;;;;;;;11.05;3.83;;;10.50;65.30;;;;;;6085418;29;20040;-64
2022/11/21 03:24:41;;;;;;;8.73;3.63;;;10.50;64.60;;;;;;6095023;29;20040;-65
2022/11/21 03:27:42;;;;;;;6.57;3.65;;;10.50;64.30;;;;;;6123897;29;20582;-65
2022/11/21 03:30:43;;;;;;;6.72;3.42;;;10.40;64.30;;;;;;6125372;29;20046;-65
2022/11/21 03:33:44;;;;;;;5.47;2.97;;;10.40;64.50;;;;;;6108982;29;20480;-65
2022/11/21 03:36:44;;;;;;;4.93;2.53;;;10.40;64.60;;;;;;6103154;29;20040;-64
2022/11/21 03:39:45;;;;;;;9.30;3.15;;;10.30;64.50;;;;;;6124474;29;20138;-65
2022/11/21 03:42:46;;;;;;;8.25;3.22;;;10.30;64.70;;;;;;6122359;29;20162;-64
2022/11/21 03:45:47;;;;;;;9.23;3.67;;;10.20;64.90;;;;;;6124301;29;20484;-65
2022/11/21 03:48:48;;;;;;;6.97;3.72;;;10.10;65.10;;;;;;6122719;29;20063;-65
2022/11/21 03:51:49;;;;;;;10.63;4.18;;;10.00;65.40;;;;;;6123327;29;20032;-64
2022/11/21 03:54:50;;;;;;;8.05;3.83;;;10.00;65.70;;;;;;6087001;29;20069;-65
2022/11/21 03:57:50;;;;;;;8.32;3.83;;;10.00;65.90;;;;;;6101561;29;20032;-64
2022/11/21 04:00:51;;;;;;;5.68;3.22;;;10.00;66.00;;;;;;6130081;29;20040;-64
2022/11/21 04:03:52;;;;;;;10.30;4.75;;;9.90;66.00;;;;;;6122742;29;20172;-64
2022/11/21 04:06:53;;;;;;;6.00;3.35;;;9.90;66.00;;;;;;6124981;29;20044;-64
2022/11/21 04:09:54;;;;;;;7.07;3.65;;;10.00;66.00;;;;;;6123644;29;20054;-64
2022/11/21 04:12:55;;;;;;;5.30;2.92;;;10.00;65.90;;;;;;6126021;29;20035;-64
2022/11/21 04:15:56;;;;;;;5.45;3.47;;;10.00;65.90;;;;;;6125142;29;20123;-64
2022/11/21 04:18:56;;;;;;;8.85;3.08;;;9.90;65.70;;;;;;6121659;29;20055;-64
2022/11/21 04:21:57;;;;;;;4.45;2.97;;;9.90;65.70;;;;;;6109812;29;20127;-64
2022/11/21 04:24:58;;;;;;;6.47;3.22;;;9.80;65.80;;;;;;6100166;29;20145;-65
2022/11/21 04:28:00;;;;;;;11.10;3.28;;;9.80;66.00;;;;;;6098912;29;20185;-65
2022/11/21 04:31:05;;;;;;;6.63;3.58;;;9.70;66.20;;;;;;6122660;29;20036;-64
2022/11/21 04:34:06;;;;;;;6.10;3.30;;;9.70;66.40;;;;;;6121476;29;20047;-66
2022/11/21 04:37:07;;;;;;;9.43;3.67;;;9.70;66.50;;;;;;6124752;29;20782;-65
2022/11/21 04:40:08;;;;;;;6.35;3.45;;;9.70;66.60;;;;;;6126211;29;20471;-65
2022/11/21 04:43:09;;;;;;;7.90;3.83;;;9.80;66.70;;;;;;6124075;29;20056;-64
2022/11/21 04:46:10;;;;;;;7.57;3.67;;;9.80;66.60;;;;;;6122330;29;20158;-65
2022/11/21 04:49:11;;;;;;;6.38;3.30;;;9.90;66.60;;;;;;6122894;29;20055;-64
2022/11/21 04:52:12;;;;;;;6.57;2.88;;;9.90;66.30;;;;;;6129668;29;20469;-64
2022/11/21 04:55:12;;;;;;;5.78;3.03;;;10.00;66.30;;;;;;6128868;29;20032;-64
2022/11/21 04:58:13;;;;;;;7.40;3.20;;;10.00;66.20;;;;;;6129033;29;20039;-66
2022/11/21 05:01:14;;;;;;;11.35;4.22;;;10.00;66.10;;;;;;6125692;29;20064;-64
2022/11/21 05:04:15;;;;;;;14.48;4.78;;;10.10;66.10;;;;;;6126425;29;20084;-65
2022/11/21 05:07:16;;;;;;;7.95;3.80;;;10.10;66.00;;;;;;6108480;29;20126;-65
2022/11/21 05:10:17;;;;;;;10.88;3.55;;;10.10;66.10;;;;;;6105207;29;20044;-65
2022/11/21 05:13:21;;;;;;;6.72;3.53;;;10.10;66.10;;;;;;6110615;29;20036;-65
2022/11/21 05:16:22;;;;;;;6.80;3.63;;;10.00;65.90;;;;;;6128706;29;20151;-65
2022/11/21 05:19:22;;;;;;;7.20;3.50;;;10.00;66.00;;;;;;6125815;29;20102;-65
2022/11/21 05:22:23;;;;;;;5.38;3.28;;;9.90;66.00;;;;;;6119288;29;20048;-65
2022/11/21 05:25:24;;;;;;;5.70;3.25;;;9.80;65.90;;;;;;6121453;29;20044;-65
2022/11/21 05:28:25;;;;;;;7.47;3.83;;;9.80;66.10;;;;;;6124568;29;20043;-65
2022/11/21 05:31:26;;;;;;;7.97;4.65;;;9.70;66.10;;;;;;6126290;29;20047;-64
2022/11/21 05:34:27;;;;;;;13.98;4.35;;;9.70;66.10;;;;;;6109797;29;20461;-64
2022/11/21 05:37:28;;;;;;;5.43;3.30;;;9.60;66.20;;;;;;6129094;29;20130;-64
2022/11/21 05:40:28;;;;;;;10.15;4.13;;;9.50;66.40;;;;;;6127350;29;20476;-64
2022/11/21 05:43:44;;;;;;;7.57;4.50;;;9.50;67.50;;;;;;6124826;29;20053;-64
2022/11/21 05:46:45;;;;;;;7.53;3.90;;;9.40;66.80;;;;;;6125748;29;20056;-64
2022/11/21 05:49:46;;;;;;;13.52;4.70;;;9.40;67.00;;;;;;6123253;28;20496;-65
2022/11/21 05:52:47;;;;;;;7.63;4.25;;;9.30;67.10;;;;;;6126996;28;20051;-65
2022/11/21 05:55:47;;;;;;;7.75;3.85;;;9.30;67.30;;;;;;6126816;29;20376;-64
2022/11/21 05:58:48;;;;;;;7.65;3.95;;;9.20;67.50;;;;;;6120305;29;20437;-65
2022/11/21 06:05:09;;;;;;;6.65;3.50;;;9.20;67.80;;;;;;6122973;28;20111;-64
2022/11/21 06:08:09;;;;;;;7.50;3.63;;;9.10;67.80;;;;;;6124639;28;20039;-64
2022/11/21 06:11:12;;;;;;;5.45;3.35;;;9.10;67.90;;;;;;6123310;28;20081;-66
2022/11/21 06:14:13;;;;;;;9.90;3.70;;;9.10;68.00;;;;;;6119623;28;20035;-64
2022/11/21 06:17:14;;;;;;;7.88;4.18;;;9.10;68.10;;;;;;6122500;28;20068;-65
2022/11/21 06:20:15;;;;;;;7.22;3.78;;;9.10;68.10;;;;;;6122075;28;20055;-65
2022/11/21 06:23:19;;;;;;;9.50;4.28;;;9.20;68.10;;;;;;6122108;28;20071;-66
2022/11/21 06:26:22;;;;;;;9.23;3.58;;;9.20;67.90;;;;;;6123145;29;20492;-66
2022/11/21 06:29:23;;;;;;;5.53;3.10;;;9.20;67.80;;;;;;6122680;29;20067;-66
2022/11/21 06:32:23;;;;;;;7.65;3.67;;;9.20;67.90;;;;;;6122021;29;20058;-65
2022/11/21 06:35:24;;;;;;;8.60;3.75;;;9.20;67.80;;;;;;6110802;29;20040;-63
2022/11/21 06:38:26;;;;;;;5.93;3.70;;;9.20;67.70;;;;;;6097505;29;20373;-64
2022/11/21 06:41:29;;;;;;;8.75;4.10;;;9.20;67.60;;;;;;6111419;29;20123;-65
2022/11/21 06:44:30;;;;;;;11.57;4.40;;;9.20;67.60;;;;;;6120843;29;20042;-64
2022/11/21 06:47:34;;;;;;;8.20;4.05;;;9.30;67.60;;;;;;6118696;29;20454;-65
2022/11/21 06:50:35;;;;;;;8.90;3.38;;;9.30;67.60;;;;;;6123024;29;20028;-64
2022/11/21 06:53:36;;;;;;;6.88;3.47;;;9.30;67.60;;;;;;6119348;29;20375;-65
2022/11/21 06:56:37;;;;;;;9.85;4.13;;;9.30;67.50;;;;;;6109430;28;20374;-64
2022/11/21 06:59:38;;;;;;;10.18;3.92;;;9.40;67.60;;;;;;6121152;29;20446;-64
2022/11/21 07:02:38;;;;;;;9.23;4.18;;;9.40;67.50;;;;;;6114932;29;20048;-64
2022/11/21 07:05:39;;;;;;;7.57;4.22;;;9.50;67.40;;;;;;6101824;29;20522;-66
2022/11/21 07:08:40;;;;;;;9.38;3.70;;;9.50;67.20;;;;;;6106476;28;20103;-65
2022/11/21 07:11:42;;;;;;;6.40;3.42;;;9.50;67.10;;;;;;6123574;28;20031;-64
2022/11/21 07:14:42;;;;;;;8.60;3.83;;;9.60;66.90;;;;;;6124197;28;20059;-65
2022/11/21 07:17:43;;;;;;;5.32;3.10;;;9.60;66.80;;;;;;6123709;28;20377;-64
2022/11/21 07:20:45;;;;;;;8.95;4.15;;;9.60;66.70;;;;;;6122773;29;20156;-64
2022/11/21 07:23:45;;;;;;;9.75;4.78;;;9.70;66.80;;;;;;6123317;28;20139;-65
2022/11/21 07:26:46;;;;;;;7.78;4.35;;;9.70;66.60;;;;;;6122109;28;20043;-64
2022/11/21 07:29:47;;;;;;;7.03;3.38;;;9.70;66.60;;;;;;6121976;28;20051;-65
2022/11/21 07:32:57;;;;;;;6.75;4.05;;;9.70;66.40;;;;;;6112381;29;20055;-64
2022/11/21 07:35:58;;;;;;;9.88;3.55;;;9.70;66.50;;;;;;6098240;29;20180;-65
2022/11/21 07:38:59;;;;;;;6.82;3.95;;;9.70;66.40;;;;;;6120452;29;20048;-65
2022/11/21 07:42:00;;;;;;;10.50;4.20;;;9.70;66.40;;;;;;6118791;28;20047;-65
2022/11/21 07:45:01;;;;;;;6.95;3.83;;;9.70;66.30;;;;;;6123039;28;20111;-65
2022/11/21 07:48:05;;;;;;;8.00;3.47;;;9.70;66.10;;;;;;6115944;29;20515;-64
2022/11/21 07:51:06;;;;;;;10.13;3.78;;;9.70;66.00;;;;;;6123495;28;20043;-64
2022/11/21 07:54:07;;;;;;;8.73;3.33;;;9.80;66.10;;;;;;6122329;28;20385;-65
2022/11/21 07:57:08;;;;;;;9.38;3.40;;;9.80;66.00;;;;;;6137906;28;20036;-64
2022/11/21 08:00:09;;;;;;;5.97;4.00;;;9.90;66.00;;;;;;6123227;28;20051;-65
2022/11/21 08:03:11;;;;;;;4.93;2.85;;;9.90;65.90;;;;;;6110712;29;20051;-65
2022/11/21 08:06:12;;;;;;;7.30;3.33;;;10.00;65.70;;;;;;6107859;29;20052;-65
2022/11/21 08:09:13;;;;;;;9.60;3.85;;;10.00;65.50;;;;;;6114411;29;20040;-65
2022/11/21 08:12:14;;;;;;;6.47;3.60;;;10.00;65.40;;;;;;6099974;29;20063;-64
2022/11/21 08:15:15;;;;;;;7.60;3.63;;;10.00;65.50;;;;;;6118602;29;20051;-64
2022/11/21 08:18:20;;;;;;;8.48;3.72;;;10.00;65.40;;;;;;6106728;29;20504;-64
2022/11/21 08:21:21;;;;;;;6.78;3.97;;;10.10;65.10;;;;;;6122775;28;20047;-65
2022/11/21 08:24:22;;;;;;;6.25;3.53;;;10.10;65.20;;;;;;6125267;28;20059;-65
2022/11/21 08:27:23;;;;;;;13.20;4.18;;;10.10;65.00;;;;;;6124384;28;20036;-66
2022/11/21 08:30:24;;;;;;;6.47;4.03;;;10.10;65.00;;;;;;6123829;29;20067;-65
2022/11/21 08:33:25;;;;;;;7.22;3.70;;;10.10;64.80;;;;;;6120244;29;20388;-66
2022/11/21 08:36:26;;;;;;;8.90;4.30;;;10.10;64.70;;;;;;6123189;29;20054;-64
2022/11/21 08:39:29;;;;;;;9.60;3.47;;;10.20;64.80;;;;;;6126802;29;20055;-65
2022/11/21 08:42:30;;;;;;;11.43;3.97;;;10.20;64.80;;;;;;6127485;29;20043;-64
2022/11/21 08:45:33;;;;;;;6.68;3.28;;;10.20;64.70;;;;;;6126034;29;20050;-65
2022/11/21 08:48:34;;;;;;;6.93;3.47;;;10.30;64.70;;;;;;6124953;29;20066;-64
2022/11/21 08:51:35;;;;;;;9.50;4.40;;;10.30;64.50;;;;;;6126664;29;20051;-65
2022/11/21 08:54:36;;;;;;;8.20;3.92;;;10.30;64.50;;;;;;6125777;29;20043;-65
2022/11/21 08:57:40;;;;;;;7.68;4.07;;;10.30;64.10;;;;;;6127185;29;20118;-65
2022/11/21 09:00:40;;;;;;;6.60;3.75;;;10.30;63.90;;;;;;6127327;29;20520;-65
2022/11/21 09:03:41;;;;;;;8.60;3.42;;;10.30;64.00;;;;;;6109830;29;20044;-65
2022/11/21 09:06:42;;;;;;;7.93;3.70;;;10.30;64.00;;;;;;6137849;29;20063;-65
2022/11/21 09:09:43;;;;;;;10.18;4.30;;;10.40;64.00;;;;;;6127157;29;20355;-65
2022/11/21 09:12:44;;;;;;;6.63;3.60;;;10.40;63.80;;;;;;6126753;29;20042;-65
2022/11/21 09:19:04;;;;;;;9.82;3.70;;;10.50;63.80;;;;;;6125617;28;20143;-66
2022/11/21 09:22:05;;;;;;;7.68;3.67;;;10.60;63.60;;;;;;6125194;29;20377;-64
2022/11/21 09:25:07;;;;;;;9.65;3.97;;;10.60;63.60;;;;;;6125708;29;20341;-65
2022/11/21 09:28:10;;;;;;;7.18;3.60;;;10.60;63.50;;;;;;6125381;29;20409;-64
2022/11/21 09:31:11;;;;;;;11.18;4.20;;;10.70;63.20;;;;;;6122947;29;20595;-65
2022/11/21 09:34:12;;;;;;;14.43;3.60;;;10.70;63.20;;;;;;6108145;28;20044;-66
2022/11/21 09:37:13;;;;;;;5.53;3.30;;;10.80;63.10;;;;;;6127342;28;20373;-65
2022/11/21 09:40:18;;;;;;;8.45;3.65;;;10.80;63.00;;;;;;6125210;29;20351;-64
2022/11/21 09:43:34;;;;;;;6.20;3.05;;;10.80;62.70;;;;;;6124274;28;20043;-64
2022/11/21 09:46:48;;;;;;;9.60;4.05;;;10.80;62.70;;;;;;6126211;28;20055;-66
2022/11/21 09:50:14;;;;;;;6.00;3.22;;;10.80;62.90;;;;;;6124610;29;20040;-64
2022/11/21 09:53:19;;;;;;;8.43;4.55;;;10.80;63.10;;;;;;6103425;29;20179;-64
2022/11/21 09:56:25;;;;;;;8.23;3.88;;;10.90;63.10;;;;;;6114605;29;20048;-65
2022/11/21 09:59:33;;;;;;;6.63;3.80;;;10.90;62.90;;;;;;6123693;29;20035;-65
2022/11/21 10:02:35;;;;;;;7.00;3.17;;;10.90;62.70;;;;;;6101959;29;20110;-65
2022/11/21 10:05:58;;;;;;;6.05;3.08;;;11.00;62.80;;;;;;6101823;29;20032;-66
2022/11/21 10:09:36;;;;;;;10.02;3.38;;;11.10;62.70;;;;;;6107074;29;20039;-64
2022/11/21 10:12:37;;;;;;;4.13;2.45;;;11.20;62.20;;;;;;6119363;28;20091;-65
2022/11/21 10:16:02;;;;;;;5.63;3.05;;;11.30;62.00;;;;;;6122045;28;20103;-65
2022/11/21 10:19:24;;;;;;;7.95;3.75;;;11.40;61.60;;;;;;6120329;28;20469;-66
2022/11/21 10:22:43;;;;;;;5.78;3.05;;;11.60;61.50;;;;;;6118152;28;20256;-65
2022/11/21 10:26:08;;;;;;;6.72;3.58;;;11.70;61.20;;;;;;6119429;28;20046;-66
2022/11/21 10:29:35;;;;;;;8.23;3.55;;;11.80;60.70;;;;;;6119626;29;20373;-66
2022/11/21 10:32:40;;;;;;;7.82;3.30;;;11.90;60.50;;;;;;6098460;29;20051;-65
2022/11/21 10:35:46;;;;;;;6.43;3.25;;;11.90;60.20;;;;;;6108419;29;20039;-65
2022/11/21 10:38:49;;;;;;;8.73;3.47;;;12.00;60.10;;;;;;6100671;29;20047;-65
2022/11/21 10:42:08;;;;;;;7.10;2.78;;;12.00;60.10;;;;;;6122625;29;20099;-65
2022/11/21 10:45:15;;;;;;;4.55;2.53;;;12.10;59.80;;;;;;6111466;29;20047;-65
2022/11/21 10:48:16;;;;;;;8.18;2.97;;;12.20;59.50;;;;;;6133680;28;20469;-64
2022/11/21 10:51:44;;;;;;;5.95;2.58;;;12.30;59.20;;;;;;6147408;28;20039;-65
2022/11/21 10:55:18;;;;;;;9.50;3.25;;;12.30;59.10;;;;;;6132322;28;20426;-65
2022/11/21 10:58:27;;;;;;;7.90;3.00;;;12.50;59.00;;;;;;6080524;29;20435;-65
2022/11/21 11:01:34;;;;;;;5.00;3.08;;;12.60;58.80;;;;;;6060624;29;20103;-66
2022/11/21 11:04:35;;;;;;;7.80;2.40;;;12.70;58.40;;;;;;6065010;29;20478;-65
2022/11/21 11:07:36;;;;;;;5.97;2.85;;;12.80;58.30;;;;;;6052739;29;20073;-66
2022/11/21 11:10:45;;;;;;;7.18;3.22;;;12.90;58.20;;;;;;6079242;29;20040;-64
2022/11/21 11:14:04;;;;;;;11.18;4.60;;;13.00;57.90;;;;;;6078176;29;20040;-66
2022/11/21 11:17:05;;;;;;;12.50;3.42;;;13.10;57.80;;;;;;6094013;29;20171;-66
2022/11/21 11:20:28;;;;;;;8.30;3.42;;;13.10;57.50;;;;;;6095184;29;20050;-65
2022/11/21 11:23:29;;;;;;;6.38;3.85;;;13.00;57.70;;;;;;6090097;29;20105;-67
2022/11/21 11:26:31;;;;;;;8.30;4.22;;;13.00;57.70;;;;;;6097658;29;20040;-66
2022/11/21 11:29:47;;;;;;;10.35;3.67;;;13.00;57.90;;;;;;6097407;29;20040;-66
2022/11/21 11:32:48;;;;;;;9.57;4.18;;;13.00;57.90;;;;;;6097665;29;20051;-66
2022/11/21 11:35:49;;;;;;;13.00;4.95;;;12.90;58.10;;;;;;6091579;28;20459;-66
2022/11/21 11:39:03;;;;;;;8.52;4.10;;;12.90;58.00;;;;;;6122111;28;20043;-65
2022/11/21 11:50:12;;;;;;;7.10;3.38;;;13.00;58.10;;;;;;6068690;29;20068;-65
2022/11/21 11:53:25;;;;;;;5.53;3.40;;;13.00;58.10;;;;;;6071912;29;20052;-64
2022/11/21 11:56:35;;;;;;;9.32;4.22;;;13.10;58.20;;;;;;6071735;29;20044;-66
2022/11/21 11:59:44;;;;;;;8.00;3.45;;;13.10;58.60;;;;;;6053662;29;20053;-65
2022/11/21 12:03:14;;;;;;;7.72;3.13;;;13.10;57.80;;;;;;6052703;29;20123;-64
2022/11/21 12:06:22;;;;;;;8.05;2.88;;;13.00;57.70;;;;;;6046317;29;20041;-65
2022/11/21 12:09:42;;;;;;;7.60;2.80;;;12.90;57.80;;;;;;6055681;29;20045;-65
2022/11/21 12:13:01;;;;;;;6.28;2.83;;;12.90;58.20;;;;;;6070511;29;20474;-65
2022/11/21 12:16:05;;;;;;;8.50;3.10;;;12.80;58.30;;;;;;6054774;29;20044;-65
2022/11/21 12:19:14;;;;;;;7.40;3.20;;;12.80;58.40;;;;;;6069811;29;20051;-67
2022/11/21 12:22:15;;;;;;;8.23;3.33;;;12.80;58.60;;;;;;6116675;29;20123;-67
2022/11/21 12:25:20;;;;;;;4.97;2.53;;;12.80;58.70;;;;;;6126681;29;20046;-65
2022/11/21 12:28:31;;;;;;;9.52;3.17;;;12.70;58.80;;;;;;6126547;29;20050;-65
2022/11/21 12:31:44;;;;;;;9.55;3.00;;;12.70;59.00;;;;;;6125180;29;20167;-65
2022/11/21 12:35:26;;;;;;;7.68;3.33;;;12.70;59.10;;;;;;6102617;29;20036;-65
2022/11/21 12:38:53;;;;;;;7.40;3.15;;;12.80;59.20;;;;;;6100202;29;20045;-66
2022/11/21 12:45:43;;;;;;;7.32;3.47;;;12.90;58.90;;;;;;6121044;29;20055;-65
2022/11/21 12:56:12;;;;;;;11.38;3.50;;;12.90;58.50;;;;;;6122019;29;20280;-65
2022/11/21 12:59:14;;;;;;;8.38;3.92;;;12.90;58.30;;;;;;6122295;29;20107;-64
2022/11/21 13:02:51;;;;;;;11.20;3.78;;;13.00;58.20;;;;;;6119405;28;20497;-66
2022/11/21 13:05:54;;;;;;;6.22;3.10;;;13.00;57.90;;;;;;6098993;29;20040;-65
2022/11/21 13:08:58;;;;;;;5.95;3.00;;;13.10;57.60;;;;;;6098716;29;20046;-65
2022/11/21 13:12:21;;;;;;;4.25;2.70;;;13.10;57.60;;;;;;6098396;29;20535;-65
2022/11/21 13:15:43;;;;;;;4.65;2.10;;;13.10;57.30;;;;;;6113985;28;20122;-65
2022/11/21 13:18:48;;;;;;;8.80;2.63;;;13.20;56.90;;;;;;6123209;28;20032;-66
2022/11/21 13:21:53;;;;;;;5.22;2.33;;;13.20;56.40;;;;;;6123801;29;20035;-64
2022/11/21 13:24:55;;;;;;;5.07;2.55;;;13.20;56.20;;;;;;6107001;29;20536;-65
2022/11/21 13:28:18;;;;;;;6.45;2.70;;;13.10;56.00;;;;;;6118344;28;20072;-65
2022/11/21 13:31:29;;;;;;;11.77;2.83;;;13.10;56.10;;;;;;6115572;28;20045;-65
2022/11/21 13:34:30;;;;;;;5.22;2.22;;;13.10;56.10;;;;;;6122123;29;20039;-66
2022/11/21 13:38:00;;;;;;;6.55;2.65;;;13.10;56.10;;;;;;6121477;29;20059;-65
2022/11/21 13:44:30;;;;;;;6.70;3.03;;;13.10;55.90;;;;;;6120744;29;20044;-65
2022/11/21 13:47:50;;;;;;;6.03;2.75;;;13.10;55.90;;;;;;6123361;28;20039;-65
2022/11/21 13:51:12;;;;;;;17.38;4.95;;;13.10;56.00;;;;;;6120939;29;20059;-66
2022/11/21 13:54:39;;;;;;;5.55;1.95;;;13.10;55.90;;;;;;6120762;29;20055;-65
2022/11/21 13:57:43;;;;;;;5.60;2.05;;;13.00;55.80;;;;;;6111822;28;20047;-65
2022/11/21 14:00:46;;;;;;;5.57;2.15;;;12.90;55.60;;;;;;6081735;29;20052;-65
2022/11/21 14:03:53;;;;;;;2.30;1.10;;;12.90;55.70;;;;;;6115298;29;20040;-65
2022/11/21 14:06:54;;;;;;;5.88;2.22;;;13.00;55.50;;;;;;6122371;29;20098;-65
2022/11/21 14:09:57;;;;;;;6.13;2.60;;;13.00;55.60;;;;;;6121956;29;20036;-65
2022/11/21 14:12:59;;;;;;;4.63;2.30;;;13.10;55.90;;;;;;6123096;28;20477;-66
2022/11/21 14:16:14;;;;;;;13.85;2.65;;;13.10;56.20;;;;;;6123193;28;20040;-65
2022/11/21 14:19:19;;;;;;;3.97;1.42;;;13.00;56.30;;;;;;6138427;28;20039;-65
2022/11/21 14:22:51;;;;;;;3.20;1.58;;;13.00;56.30;;;;;;6122762;29;20053;-65
2022/11/21 14:26:04;;;;;;;2.70;0.98;;;12.90;56.50;;;;;;6039608;29;20124;-65
2022/11/21 14:29:36;;;;;;;1.58;0.65;;;12.80;57.00;;;;;;6034508;29;20037;-65
2022/11/21 14:32:39;;;;;;;1.63;0.50;;;12.70;57.60;;;;;;6031370;29;20390;-66
2022/11/21 14:35:40;;;;;;;2.42;0.50;;;12.70;58.00;;;;;;6016866;29;20104;-65
2022/11/21 14:38:44;;;;;;;5.43;0.60;;;12.60;58.30;;;;;;6048255;29;20040;-65
2022/11/21 14:41:51;;;;;;;0.63;0.50;;;12.60;58.70;;;;;;6017656;29;20048;-65
2022/11/21 14:45:06;;;;;;;0.70;0.47;;;12.60;59.10;;;;;;6047841;29;20053;-65
2022/11/21 14:48:11;;;;;;;1.10;0.77;;;12.50;59.30;;;;;;6033166;29;20116;-64
2022/11/21 14:51:19;;;;;;;1.33;0.65;;;12.50;59.50;;;;;;6034935;29;20054;-67
2022/11/21 14:54:23;;;;;;;0.57;0.40;;;12.50;59.70;;;;;;6027075;29;20088;-66
2022/11/21 14:57:41;;;;;;;0.45;0.45;;;12.50;59.90;;;;;;6011834;29;20037;-66
2022/11/21 15:01:05;;;;;;;1.02;0.50;;;12.50;60.10;;;;;;6049453;29;20108;-66
2022/11/21 15:04:07;;;;;;;2.33;0.90;;;12.50;60.50;;;;;;6075000;29;20048;-65
2022/11/21 15:07:23;;;;;;;0.73;0.60;;;12.50;60.60;;;;;;6086000;29;20419;-66
2022/11/21 15:10:29;;;;;;;1.45;0.50;;;12.40;60.90;;;;;;6075078;29;20382;-66
2022/11/21 15:13:34;;;;;;;0.30;0.30;;;12.40;61.20;;;;;;6075708;29;20373;-66
2022/11/21 15:16:36;;;;;;;3.55;0.30;;;12.40;61.30;;;;;;6075086;29;20075;-65
2022/11/21 15:19:37;;;;;;;0.43;0.40;;;12.40;61.60;;;;;;6091175;29;20205;-66
2022/11/21 15:22:40;;;;;;;1.75;0.50;;;12.40;61.80;;;;;;6099181;28;20107;-65
2022/11/21 15:25:45;;;;;;;0.57;0.57;;;12.40;62.80;;;;;;6098599;28;20362;-65
2022/11/21 15:28:57;;;;;;;1.58;0.60;;;12.30;62.00;;;;;;6095862;29;20138;-65
2022/11/21 15:32:09;;;;;;;0.88;0.40;;;12.30;62.20;;;;;;6092913;29;20056;-65
2022/11/21 15:35:34;;;;;;;4.78;2.95;;;12.30;62.00;;;;;;6083126;29;20040;-66
2022/11/21 15:38:48;;;;;;;1.00;0.40;;;12.30;62.10;;;;;;6095770;29;20067;-65
2022/11/21 15:41:49;;;;;;;0.30;0.30;;;12.40;62.10;;;;;;6097950;29;20051;-65
2022/11/21 15:45:25;;;;;;;1.08;0.40;;;12.40;61.80;;;;;;6098687;29;20064;-65
2022/11/21 15:48:26;;;;;;;4.07;1.10;;;12.50;61.70;;;;;;6094730;28;20358;-65
2022/11/21 15:51:41;;;;;;;3.55;0.82;;;12.60;61.70;;;;;;6103892;28;20038;-66
2022/11/21 15:54:42;;;;;;;0.55;0.35;;;12.60;61.60;;;;;;6124690;28;20040;-64
2022/11/21 15:57:43;;;;;;;1.17;0.60;;;12.70;61.40;;;;;;6097322;28;20043;-66
2022/11/21 16:00:44;;;;;;;1.25;0.75;;;12.80;61.30;;;;;;6108508;28;20377;-65
2022/11/21 16:03:47;;;;;;;2.38;1.08;;;12.80;61.10;;;;;;6118738;29;20062;-65
2022/11/21 16:06:48;;;;;;;8.52;2.95;;;12.80;61.10;;;;;;6121394;29;20035;-66
2022/11/21 16:09:49;;;;;;;4.80;2.38;;;12.90;61.10;;;;;;6120912;29;20377;-66
2022/11/21 16:12:50;;;;;;;1.92;1.00;;;12.90;61.10;;;;;;6122000;29;20036;-65
2022/11/21 16:15:51;;;;;;;2.47;0.82;;;12.90;61.00;;;;;;6104965;29;20468;-65
2022/11/21 16:18:52;;;;;;;1.55;0.55;;;12.90;60.90;;;;;;6120316;29;20036;-66
2022/11/21 16:21:52;;;;;;;2.63;1.30;;;12.90;60.80;;;;;;6103496;29;20393;-65
2022/11/21 16:24:53;;;;;;;3.05;0.85;;;12.90;60.80;;;;;;6120193;29;20096;-65
2022/11/21 16:27:56;;;;;;;5.45;1.15;;;13.00;60.80;;;;;;6111560;29;20039;-65
2022/11/21 16:30:57;;;;;;;1.02;0.50;;;12.90;60.80;;;;;;6120650;28;20031;-65
2022/11/21 16:33:59;;;;;;;4.40;1.73;;;12.90;60.70;;;;;;6099276;29;20040;-65